sensor_id;sensor_type;location;lat;lon;timestamp;pressure;altitude;pressure_sealevel;temperature;humidity
13732;BME280;6937;56.096;12.664;2023-07-22T00:01:31;100318.25;;;15.38;100.00
13732;BME280;6937;56.096;12.664;2023-07-22T00:03:57;100316.97;;;15.42;100.00
13732;BME280;6937;56.096;12.664;2023-07-22T00:06:23;100303.50;;;15.42;100.00
13732;BME280;6937;56.096;12.664;2023-07-22T00:08:49;100279.88;;;15.36;100.00
13732;BME280;6937;56.096;12.664;2023-07-22T00:11:15;100285.34;;;15.44;100.00
13732;BME280;6937;56.096;12.664;2023-07-22T00:13:40;100281.50;;;15.46;100.00
13732;BME280;6937;56.096;12.664;2023-07-22T00:16:06;100280.09;;;15.52;100.00
13732;BME280;6937;56.096;12.664;2023-07-22T00:18:33;100271.69;;;15.55;100.00
13732;BME280;6937;56.096;12.664;2023-07-22T00:20:59;100265.13;;;15.58;100.00
13732;BME280;6937;56.096;12.664;2023-07-22T00:23:24;100255.22;;;15.58;100.00
13732;BME280;6937;56.096;12.664;2023-07-22T00:25:50;100247.97;;;15.59;100.00
13732;BME280;6937;56.096;12.664;2023-07-22T00:28:16;100250.81;;;15.57;100.00
13732;BME280;6937;56.096;12.664;2023-07-22T00:30:42;100240.34;;;15.54;100.00
13732;BME280;6937;56.096;12.664;2023-07-22T00:33:08;100236.66;;;15.55;100.00
13732;BME280;6937;56.096;12.664;2023-07-22T00:35:34;100224.25;;;15.62;100.00
13732;BME280;6937;56.096;12.664;2023-07-22T00:38:00;100213.63;;;15.61;100.00
13732;BME280;6937;56.096;12.664;2023-07-22T00:40:26;100222.03;;;15.58;100.00
13732;BME280;6937;56.096;12.664;2023-07-22T00:42:51;100206.00;;;15.56;100.00
13732;BME280;6937;56.096;12.664;2023-07-22T00:45:17;100206.41;;;15.61;100.00
13732;BME280;6937;56.096;12.664;2023-07-22T00:47:43;100197.41;;;15.70;100.00
13732;BME280;6937;56.096;12.664;2023-07-22T00:50:09;100207.22;;;15.79;100.00
13732;BME280;6937;56.096;12.664;2023-07-22T00:52:36;100193.41;;;15.82;100.00
13732;BME280;6937;56.096;12.664;2023-07-22T00:55:02;100195.50;;;15.88;100.00
13732;BME280;6937;56.096;12.664;2023-07-22T00:57:27;100194.13;;;15.84;100.00
13732;BME280;6937;56.096;12.664;2023-07-22T00:59:54;100190.03;;;15.80;100.00
13732;BME280;6937;56.096;12.664;2023-07-22T01:02:20;100195.56;;;15.71;100.00
13732;BME280;6937;56.096;12.664;2023-07-22T01:04:46;100192.94;;;15.61;100.00
13732;BME280;6937;56.096;12.664;2023-07-22T01:07:12;100196.00;;;15.66;100.00
13732;BME280;6937;56.096;12.664;2023-07-22T01:09:42;100188.94;;;15.65;100.00
13732;BME280;6937;56.096;12.664;2023-07-22T01:12:08;100194.31;;;15.65;100.00
13732;BME280;6937;56.096;12.664;2023-07-22T01:14:34;100190.63;;;15.66;100.00
13732;BME280;6937;56.096;12.664;2023-07-22T01:17:04;100181.00;;;15.64;100.00
13732;BME280;6937;56.096;12.664;2023-07-22T01:19:30;100186.88;;;15.59;100.00
13732;BME280;6937;56.096;12.664;2023-07-22T01:21:59;100165.94;;;15.53;100.00
13732;BME280;6937;56.096;12.664;2023-07-22T01:24:25;100180.78;;;15.57;100.00
13732;BME280;6937;56.096;12.664;2023-07-22T01:26:51;100177.94;;;15.59;100.00
13732;BME280;6937;56.096;12.664;2023-07-22T01:29:16;100176.25;;;15.58;100.00
13732;BME280;6937;56.096;12.664;2023-07-22T01:31:42;100179.41;;;15.53;100.00
13732;BME280;6937;56.096;12.664;2023-07-22T01:34:07;100168.72;;;15.43;100.00
13732;BME280;6937;56.096;12.664;2023-07-22T01:36:32;100166.47;;;15.39;100.00
13732;BME280;6937;56.096;12.664;2023-07-22T01:38:58;100164.94;;;15.36;100.00
13732;BME280;6937;56.096;12.664;2023-07-22T01:41:23;100152.09;;;15.30;100.00
13732;BME280;6937;56.096;12.664;2023-07-22T01:43:48;100151.16;;;15.39;100.00
13732;BME280;6937;56.096;12.664;2023-07-22T01:46:14;100145.78;;;15.39;100.00
13732;BME280;6937;56.096;12.664;2023-07-22T01:48:40;100145.78;;;15.39;100.00
13732;BME280;6937;56.096;12.664;2023-07-22T01:51:05;100157.88;;;15.35;100.00
13732;BME280;6937;56.096;12.664;2023-07-22T01:53:30;100150.56;;;15.28;100.00
13732;BME280;6937;56.096;12.664;2023-07-22T01:55:57;100146.72;;;15.30;100.00
13732;BME280;6937;56.096;12.664;2023-07-22T01:58:22;100154.25;;;15.27;100.00
13732;BME280;6937;56.096;12.664;2023-07-22T02:00:50;100145.19;;;15.28;100.00
13732;BME280;6937;56.096;12.664;2023-07-22T02:03:16;100158.97;;;15.25;100.00
13732;BME280;6937;56.096;12.664;2023-07-22T02:05:41;100146.50;;;15.24;100.00
13732;BME280;6937;56.096;12.664;2023-07-22T02:08:07;100149.22;;;15.06;100.00
13732;BME280;6937;56.096;12.664;2023-07-22T02:10:32;100164.03;;;14.92;100.00
13732;BME280;6937;56.096;12.664;2023-07-22T02:12:57;100159.28;;;14.86;100.00
13732;BME280;6937;56.096;12.664;2023-07-22T02:15:23;100149.91;;;14.73;100.00
13732;BME280;6937;56.096;12.664;2023-07-22T02:17:50;100157.44;;;14.69;100.00
13732;BME280;6937;56.096;12.664;2023-07-22T02:20:15;100152.50;;;14.65;100.00
13732;BME280;6937;56.096;12.664;2023-07-22T02:22:40;100140.25;;;14.52;100.00
13732;BME280;6937;56.096;12.664;2023-07-22T02:25:06;100145.63;;;14.52;100.00
13732;BME280;6937;56.096;12.664;2023-07-22T02:27:32;100141.72;;;14.47;100.00
13732;BME280;6937;56.096;12.664;2023-07-22T02:29:57;100114.03;;;14.37;100.00
13732;BME280;6937;56.096;12.664;2023-07-22T02:32:22;100120.66;;;14.42;100.00
13732;BME280;6937;56.096;12.664;2023-07-22T02:34:48;100117.03;;;14.51;100.00
13732;BME280;6937;56.096;12.664;2023-07-22T02:37:13;100108.69;;;14.55;100.00
13732;BME280;6937;56.096;12.664;2023-07-22T02:39:38;100109.25;;;14.58;100.00
13732;BME280;6937;56.096;12.664;2023-07-22T02:42:04;100083.34;;;14.57;100.00
13732;BME280;6937;56.096;12.664;2023-07-22T02:44:30;100095.63;;;14.60;100.00
13732;BME280;6937;56.096;12.664;2023-07-22T02:46:55;100087.31;;;14.53;100.00
13732;BME280;6937;56.096;12.664;2023-07-22T02:49:20;100090.63;;;14.47;100.00
13732;BME280;6937;56.096;12.664;2023-07-22T02:51:46;100089.06;;;14.44;100.00
13732;BME280;6937;56.096;12.664;2023-07-22T02:54:11;100082.16;;;14.42;100.00
13732;BME280;6937;56.096;12.664;2023-07-22T02:56:36;100073.38;;;14.40;100.00
13732;BME280;6937;56.096;12.664;2023-07-22T02:59:02;100060.81;;;14.40;100.00
13732;BME280;6937;56.096;12.664;2023-07-22T03:01:28;100067.03;;;14.41;100.00
13732;BME280;6937;56.096;12.664;2023-07-22T03:03:54;100049.59;;;14.45;100.00
13732;BME280;6937;56.096;12.664;2023-07-22T03:06:20;100041.22;;;14.48;100.00
13732;BME280;6937;56.096;12.664;2023-07-22T03:08:45;100028.16;;;14.53;100.00
13732;BME280;6937;56.096;12.664;2023-07-22T03:11:10;100032.91;;;14.59;100.00
13732;BME280;6937;56.096;12.664;2023-07-22T03:13:36;100009.19;;;14.55;100.00
13732;BME280;6937;56.096;12.664;2023-07-22T03:16:01;100003.34;;;14.59;100.00
13732;BME280;6937;56.096;12.664;2023-07-22T03:18:30;100002.88;;;14.64;100.00
13732;BME280;6937;56.096;12.664;2023-07-22T03:20:56;99984.69;;;14.58;100.00
13732;BME280;6937;56.096;12.664;2023-07-22T03:23:22;99984.75;;;14.66;100.00
13732;BME280;6937;56.096;12.664;2023-07-22T03:25:47;99964.56;;;14.62;100.00
13732;BME280;6937;56.096;12.664;2023-07-22T03:28:13;99969.28;;;14.68;100.00
13732;BME280;6937;56.096;12.664;2023-07-22T03:30:38;99970.59;;;14.64;100.00
13732;BME280;6937;56.096;12.664;2023-07-22T03:33:03;99960.00;;;14.62;100.00
13732;BME280;6937;56.096;12.664;2023-07-22T03:35:29;99935.22;;;14.50;100.00
13732;BME280;6937;56.096;12.664;2023-07-22T03:37:55;99928.53;;;14.55;100.00
13732;BME280;6937;56.096;12.664;2023-07-22T03:40:20;99919.91;;;14.51;100.00
13732;BME280;6937;56.096;12.664;2023-07-22T03:42:51;99915.22;;;14.53;100.00
13732;BME280;6937;56.096;12.664;2023-07-22T03:45:18;99894.19;;;14.48;100.00
13732;BME280;6937;56.096;12.664;2023-07-22T03:47:51;99888.13;;;14.46;100.00
13732;BME280;6937;56.096;12.664;2023-07-22T03:50:16;99878.53;;;14.44;100.00
13732;BME280;6937;56.096;12.664;2023-07-22T03:52:42;99868.94;;;14.41;100.00
13732;BME280;6937;56.096;12.664;2023-07-22T03:55:07;99869.47;;;14.45;100.00
13732;BME280;6937;56.096;12.664;2023-07-22T03:57:33;99869.84;;;14.50;100.00
13732;BME280;6937;56.096;12.664;2023-07-22T03:59:59;99875.91;;;14.52;100.00
13732;BME280;6937;56.096;12.664;2023-07-22T04:02:25;99875.91;;;14.52;100.00
13732;BME280;6937;56.096;12.664;2023-07-22T04:04:54;99875.75;;;14.54;100.00
13732;BME280;6937;56.096;12.664;2023-07-22T04:07:20;99879.09;;;14.56;100.00
13732;BME280;6937;56.096;12.664;2023-07-22T04:09:45;99887.81;;;14.49;100.00
13732;BME280;6937;56.096;12.664;2023-07-22T04:12:11;99885.75;;;14.43;100.00
13732;BME280;6937;56.096;12.664;2023-07-22T04:14:38;99871.78;;;14.40;100.00
13732;BME280;6937;56.096;12.664;2023-07-22T04:17:03;99856.25;;;14.34;100.00
13732;BME280;6937;56.096;12.664;2023-07-22T04:19:32;99853.56;;;14.34;100.00
13732;BME280;6937;56.096;12.664;2023-07-22T04:21:58;99827.59;;;14.25;100.00
13732;BME280;6937;56.096;12.664;2023-07-22T04:24:24;99814.75;;;14.11;100.00
13732;BME280;6937;56.096;12.664;2023-07-22T04:26:50;99800.78;;;14.07;100.00
13732;BME280;6937;56.096;12.664;2023-07-22T04:29:16;99780.00;;;14.09;100.00
13732;BME280;6937;56.096;12.664;2023-07-22T04:31:41;99763.38;;;14.14;100.00
13732;BME280;6937;56.096;12.664;2023-07-22T04:34:06;99728.78;;;14.11;100.00
13732;BME280;6937;56.096;12.664;2023-07-22T04:36:33;99704.75;;;14.09;100.00
13732;BME280;6937;56.096;12.664;2023-07-22T04:38:58;99676.84;;;14.02;100.00
13732;BME280;6937;56.096;12.664;2023-07-22T04:41:23;99665.94;;;14.03;100.00
13732;BME280;6937;56.096;12.664;2023-07-22T04:43:50;99630.63;;;13.98;100.00
13732;BME280;6937;56.096;12.664;2023-07-22T04:46:16;99629.50;;;14.01;100.00
13732;BME280;6937;56.096;12.664;2023-07-22T04:48:41;99604.28;;;13.94;100.00
13732;BME280;6937;56.096;12.664;2023-07-22T04:51:07;99563.28;;;13.92;100.00
13732;BME280;6937;56.096;12.664;2023-07-22T04:53:32;99557.78;;;13.93;100.00
13732;BME280;6937;56.096;12.664;2023-07-22T04:55:58;99536.78;;;13.97;100.00
13732;BME280;6937;56.096;12.664;2023-07-22T04:58:23;99512.63;;;13.97;100.00
13732;BME280;6937;56.096;12.664;2023-07-22T05:00:49;99490.28;;;13.96;100.00
13732;BME280;6937;56.096;12.664;2023-07-22T05:03:14;99478.38;;;13.99;100.00
13732;BME280;6937;56.096;12.664;2023-07-22T05:05:41;99451.34;;;14.00;100.00
13732;BME280;6937;56.096;12.664;2023-07-22T05:08:07;99434.38;;;14.00;100.00
13732;BME280;6937;56.096;12.664;2023-07-22T05:10:33;99403.69;;;13.94;100.00
13732;BME280;6937;56.096;12.664;2023-07-22T05:12:59;99378.13;;;13.98;100.00
13732;BME280;6937;56.096;12.664;2023-07-22T05:15:24;99347.59;;;14.08;100.00
13732;BME280;6937;56.096;12.664;2023-07-22T05:17:50;99313.38;;;14.10;100.00
13732;BME280;6937;56.096;12.664;2023-07-22T05:20:15;99280.44;;;14.08;100.00
13732;BME280;6937;56.096;12.664;2023-07-22T05:22:41;99273.38;;;14.15;100.00
13732;BME280;6937;56.096;12.664;2023-07-22T05:25:07;99266.16;;;14.15;100.00
13732;BME280;6937;56.096;12.664;2023-07-22T05:27:33;99251.72;;;14.16;100.00
13732;BME280;6937;56.096;12.664;2023-07-22T05:29:58;99238.94;;;14.18;100.00
13732;BME280;6937;56.096;12.664;2023-07-22T05:32:24;99211.28;;;14.10;100.00
13732;BME280;6937;56.096;12.664;2023-07-22T05:34:49;99197.47;;;14.21;100.00
13732;BME280;6937;56.096;12.664;2023-07-22T05:37:14;99171.91;;;14.25;100.00
13732;BME280;6937;56.096;12.664;2023-07-22T05:39:40;99143.16;;;14.33;100.00
13732;BME280;6937;56.096;12.664;2023-07-22T05:42:05;99104.19;;;14.45;100.00
13732;BME280;6937;56.096;12.664;2023-07-22T05:44:31;99096.06;;;14.54;100.00
13732;BME280;6937;56.096;12.664;2023-07-22T05:46:56;99087.66;;;14.57;100.00
13732;BME280;6937;56.096;12.664;2023-07-22T05:49:22;99074.09;;;14.50;100.00
13732;BME280;6937;56.096;12.664;2023-07-22T05:51:47;99056.28;;;14.49;100.00
13732;BME280;6937;56.096;12.664;2023-07-22T05:54:12;99023.53;;;14.45;100.00
13732;BME280;6937;56.096;12.664;2023-07-22T05:56:38;99010.59;;;14.49;100.00
13732;BME280;6937;56.096;12.664;2023-07-22T05:59:03;98980.59;;;14.60;100.00
13732;BME280;6937;56.096;12.664;2023-07-22T06:01:29;98963.88;;;14.73;100.00
13732;BME280;6937;56.096;12.664;2023-07-22T06:03:55;98945.31;;;14.78;100.00
13732;BME280;6937;56.096;12.664;2023-07-22T06:06:20;98939.75;;;14.79;100.00
13732;BME280;6937;56.096;12.664;2023-07-22T06:08:46;98932.72;;;14.78;100.00
13732;BME280;6937;56.096;12.664;2023-07-22T06:11:11;98933.44;;;14.72;100.00
13732;BME280;6937;56.096;12.664;2023-07-22T06:13:36;98918.22;;;14.65;100.00
13732;BME280;6937;56.096;12.664;2023-07-22T06:16:02;98922.38;;;14.67;100.00
13732;BME280;6937;56.096;12.664;2023-07-22T06:18:28;98921.84;;;14.72;100.00
13732;BME280;6937;56.096;12.664;2023-07-22T06:20:53;98928.59;;;14.68;100.00
13732;BME280;6937;56.096;12.664;2023-07-22T06:23:18;98935.47;;;14.70;100.00
13732;BME280;6937;56.096;12.664;2023-07-22T06:25:44;98929.91;;;14.72;100.00
13732;BME280;6937;56.096;12.664;2023-07-22T06:28:09;98940.50;;;14.73;100.00
13732;BME280;6937;56.096;12.664;2023-07-22T06:30:34;98939.66;;;14.73;100.00
13732;BME280;6937;56.096;12.664;2023-07-22T06:33:00;98955.72;;;14.81;100.00
13732;BME280;6937;56.096;12.664;2023-07-22T06:35:25;98975.38;;;14.81;100.00
13732;BME280;6937;56.096;12.664;2023-07-22T06:37:51;98988.09;;;14.87;100.00
13732;BME280;6937;56.096;12.664;2023-07-22T06:40:17;98994.44;;;14.94;100.00
13732;BME280;6937;56.096;12.664;2023-07-22T06:42:43;99006.22;;;15.08;100.00
13732;BME280;6937;56.096;12.664;2023-07-22T06:45:08;99015.25;;;15.15;100.00
13732;BME280;6937;56.096;12.664;2023-07-22T06:47:33;99026.47;;;15.19;100.00
13732;BME280;6937;56.096;12.664;2023-07-22T06:50:00;99051.69;;;15.40;100.00
13732;BME280;6937;56.096;12.664;2023-07-22T06:52:25;99089.63;;;15.45;100.00
13732;BME280;6937;56.096;12.664;2023-07-22T06:54:50;99129.28;;;15.37;100.00
13732;BME280;6937;56.096;12.664;2023-07-22T06:57:16;99159.44;;;15.32;100.00
13732;BME280;6937;56.096;12.664;2023-07-22T06:59:41;99236.94;;;15.37;100.00
13732;BME280;6937;56.096;12.664;2023-07-22T07:02:07;99309.28;;;15.40;100.00
13732;BME280;6937;56.096;12.664;2023-07-22T07:04:32;99379.56;;;15.53;100.00
13732;BME280;6937;56.096;12.664;2023-07-22T07:06:58;99442.69;;;15.51;100.00
13732;BME280;6937;56.096;12.664;2023-07-22T07:09:24;99503.91;;;15.57;100.00
13732;BME280;6937;56.096;12.664;2023-07-22T07:11:50;99573.44;;;15.61;100.00
13732;BME280;6937;56.096;12.664;2023-07-22T07:14:15;99630.31;;;15.74;100.00
13732;BME280;6937;56.096;12.664;2023-07-22T07:16:41;99691.59;;;15.80;100.00
13732;BME280;6937;56.096;12.664;2023-07-22T07:19:06;99739.38;;;15.86;100.00
13732;BME280;6937;56.096;12.664;2023-07-22T07:21:31;99782.19;;;15.89;100.00
13732;BME280;6937;56.096;12.664;2023-07-22T07:23:57;99840.78;;;15.87;100.00
13732;BME280;6937;56.096;12.664;2023-07-22T07:26:23;99876.66;;;15.80;100.00
13732;BME280;6937;56.096;12.664;2023-07-22T07:28:49;99918.56;;;15.74;100.00
13732;BME280;6937;56.096;12.664;2023-07-22T07:31:17;99926.66;;;15.82;100.00
13732;BME280;6937;56.096;12.664;2023-07-22T07:33:43;99950.28;;;15.97;100.00
13732;BME280;6937;56.096;12.664;2023-07-22T07:36:08;99967.28;;;16.05;100.00
13732;BME280;6937;56.096;12.664;2023-07-22T07:38:34;100008.25;;;16.01;100.00
13732;BME280;6937;56.096;12.664;2023-07-22T07:41:01;100048.16;;;16.05;100.00
13732;BME280;6937;56.096;12.664;2023-07-22T07:43:27;100074.53;;;16.19;100.00
13732;BME280;6937;56.096;12.664;2023-07-22T07:46:12;100083.00;;;16.40;100.00
13732;BME280;6937;56.096;12.664;2023-07-22T07:48:38;100117.19;;;16.32;100.00
13732;BME280;6937;56.096;12.664;2023-07-22T07:51:03;100150.00;;;16.19;100.00
13732;BME280;6937;56.096;12.664;2023-07-22T07:53:28;100177.59;;;16.13;100.00
13732;BME280;6937;56.096;12.664;2023-07-22T07:55:54;100183.97;;;16.12;100.00
13732;BME280;6937;56.096;12.664;2023-07-22T07:58:19;100198.97;;;16.07;100.00
13732;BME280;6937;56.096;12.664;2023-07-22T08:00:44;100233.88;;;16.08;100.00
13732;BME280;6937;56.096;12.664;2023-07-22T08:03:10;100262.03;;;16.14;100.00
13732;BME280;6937;56.096;12.664;2023-07-22T08:05:35;100275.25;;;16.25;100.00
13732;BME280;6937;56.096;12.664;2023-07-22T08:08:01;100282.44;;;16.42;100.00
13732;BME280;6937;56.096;12.664;2023-07-22T08:10:26;100305.88;;;16.50;100.00
13732;BME280;6937;56.096;12.664;2023-07-22T08:12:51;100298.72;;;16.58;100.00
13732;BME280;6937;56.096;12.664;2023-07-22T08:15:17;100314.09;;;16.66;100.00
13732;BME280;6937;56.096;12.664;2023-07-22T08:17:42;100346.16;;;16.69;100.00
13732;BME280;6937;56.096;12.664;2023-07-22T08:20:08;100352.13;;;16.80;100.00
13732;BME280;6937;56.096;12.664;2023-07-22T08:22:34;100360.13;;;16.90;100.00
13732;BME280;6937;56.096;12.664;2023-07-22T08:24:59;100378.38;;;16.96;100.00
13732;BME280;6937;56.096;12.664;2023-07-22T08:27:24;100381.59;;;17.00;100.00
13732;BME280;6937;56.096;12.664;2023-07-22T08:29:50;100390.16;;;16.95;100.00
13732;BME280;6937;56.096;12.664;2023-07-22T08:32:15;100407.91;;;16.98;100.00
13732;BME280;6937;56.096;12.664;2023-07-22T08:34:40;100424.47;;;17.03;100.00
13732;BME280;6937;56.096;12.664;2023-07-22T08:37:06;100447.91;;;17.02;100.00
13732;BME280;6937;56.096;12.664;2023-07-22T08:39:31;100450.03;;;17.16;100.00
13732;BME280;6937;56.096;12.664;2023-07-22T08:41:58;100458.47;;;17.21;100.00
13732;BME280;6937;56.096;12.664;2023-07-22T08:44:27;100452.78;;;17.24;100.00
13732;BME280;6937;56.096;12.664;2023-07-22T08:46:56;100463.34;;;17.18;100.00
13732;BME280;6937;56.096;12.664;2023-07-22T08:49:23;100471.53;;;17.00;100.00
13732;BME280;6937;56.096;12.664;2023-07-22T08:51:50;100476.75;;;16.76;100.00
13732;BME280;6937;56.096;12.664;2023-07-22T08:54:15;100494.38;;;16.62;100.00
13732;BME280;6937;56.096;12.664;2023-07-22T08:56:42;100478.63;;;16.58;100.00
13732;BME280;6937;56.096;12.664;2023-07-22T08:59:07;100480.63;;;16.73;100.00
13732;BME280;6937;56.096;12.664;2023-07-22T09:01:33;100479.44;;;16.94;100.00
13732;BME280;6937;56.096;12.664;2023-07-22T09:03:59;100481.06;;;17.12;100.00
13732;BME280;6937;56.096;12.664;2023-07-22T09:06:25;100480.03;;;17.39;100.00
13732;BME280;6937;56.096;12.664;2023-07-22T09:08:51;100497.25;;;17.38;100.00
13732;BME280;6937;56.096;12.664;2023-07-22T09:11:19;100514.13;;;17.40;100.00
13732;BME280;6937;56.096;12.664;2023-07-22T09:13:44;100536.00;;;17.29;100.00
13732;BME280;6937;56.096;12.664;2023-07-22T09:16:11;100526.91;;;17.30;100.00
13732;BME280;6937;56.096;12.664;2023-07-22T09:18:37;100538.16;;;17.43;100.00
13732;BME280;6937;56.096;12.664;2023-07-22T09:21:03;100549.91;;;17.60;100.00
13732;BME280;6937;56.096;12.664;2023-07-22T09:23:35;100537.44;;;17.67;100.00
13732;BME280;6937;56.096;12.664;2023-07-22T09:26:17;100548.47;;;17.81;100.00
13732;BME280;6937;56.096;12.664;2023-07-22T09:28:56;100551.50;;;17.78;100.00
13732;BME280;6937;56.096;12.664;2023-07-22T09:31:24;100543.38;;;17.70;100.00
13732;BME280;6937;56.096;12.664;2023-07-22T09:33:50;100558.22;;;17.66;100.00
13732;BME280;6937;56.096;12.664;2023-07-22T09:36:16;100548.34;;;17.83;100.00
13732;BME280;6937;56.096;12.664;2023-07-22T09:38:41;100564.34;;;17.76;100.00
13732;BME280;6937;56.096;12.664;2023-07-22T09:41:07;100576.50;;;17.72;100.00
13732;BME280;6937;56.096;12.664;2023-07-22T09:43:38;100572.81;;;17.56;100.00
13732;BME280;6937;56.096;12.664;2023-07-22T09:46:10;100571.03;;;17.38;100.00
13732;BME280;6937;56.096;12.664;2023-07-22T09:48:43;100586.72;;;17.35;100.00
13732;BME280;6937;56.096;12.664;2023-07-22T09:51:14;100579.22;;;17.29;100.00
13732;BME280;6937;56.096;12.664;2023-07-22T09:54:02;100572.63;;;17.49;100.00
13732;BME280;6937;56.096;12.664;2023-07-22T09:56:28;100587.47;;;17.45;100.00
13732;BME280;6937;56.096;12.664;2023-07-22T09:58:54;100588.38;;;17.28;100.00
13732;BME280;6937;56.096;12.664;2023-07-22T10:01:23;100595.38;;;17.21;100.00
13732;BME280;6937;56.096;12.664;2023-07-22T10:03:53;100590.88;;;17.04;100.00
13732;BME280;6937;56.096;12.664;2023-07-22T10:06:29;100579.94;;;17.05;100.00
13732;BME280;6937;56.096;12.664;2023-07-22T10:08:56;100593.28;;;17.32;100.00
13732;BME280;6937;56.096;12.664;2023-07-22T10:11:27;100602.78;;;17.62;100.00
13732;BME280;6937;56.096;12.664;2023-07-22T10:13:53;100611.88;;;17.87;100.00
13732;BME280;6937;56.096;12.664;2023-07-22T10:16:18;100628.16;;;17.95;100.00
13732;BME280;6937;56.096;12.664;2023-07-22T10:18:45;100625.50;;;18.03;100.00
13732;BME280;6937;56.096;12.664;2023-07-22T10:21:12;100632.25;;;18.07;100.00
13732;BME280;6937;56.096;12.664;2023-07-22T10:23:38;100629.19;;;18.02;100.00
13732;BME280;6937;56.096;12.664;2023-07-22T10:26:04;100660.81;;;18.02;100.00
13732;BME280;6937;56.096;12.664;2023-07-22T10:28:30;100635.78;;;17.74;100.00
13732;BME280;6937;56.096;12.664;2023-07-22T10:30:56;100646.50;;;17.83;100.00
13732;BME280;6937;56.096;12.664;2023-07-22T10:33:22;100640.06;;;17.76;100.00
13732;BME280;6937;56.096;12.664;2023-07-22T10:36:04;100640.59;;;17.80;100.00
13732;BME280;6937;56.096;12.664;2023-07-22T10:38:30;100639.94;;;17.86;100.00
13732;BME280;6937;56.096;12.664;2023-07-22T10:40:56;100666.31;;;18.18;100.00
13732;BME280;6937;56.096;12.664;2023-07-22T10:43:32;100655.59;;;18.08;100.00
13732;BME280;6937;56.096;12.664;2023-07-22T10:46:05;100666.44;;;18.16;100.00
13732;BME280;6937;56.096;12.664;2023-07-22T10:48:35;100662.97;;;18.32;100.00
13732;BME280;6937;56.096;12.664;2023-07-22T10:51:13;100681.63;;;18.43;100.00
13732;BME280;6937;56.096;12.664;2023-07-22T10:53:48;100668.59;;;18.47;100.00
13732;BME280;6937;56.096;12.664;2023-07-22T10:56:19;100680.09;;;18.49;100.00
13732;BME280;6937;56.096;12.664;2023-07-22T11:07:06;100674.09;;;18.71;100.00
13732;BME280;6937;56.096;12.664;2023-07-22T11:12:04;100697.28;;;18.65;100.00
13732;BME280;6937;56.096;12.664;2023-07-22T11:14:32;100694.09;;;18.70;100.00
13732;BME280;6937;56.096;12.664;2023-07-22T11:16:59;100688.81;;;18.60;100.00
13732;BME280;6937;56.096;12.664;2023-07-22T11:19:26;100685.25;;;18.60;100.00
13732;BME280;6937;56.096;12.664;2023-07-22T11:21:53;100670.06;;;18.75;100.00
13732;BME280;6937;56.096;12.664;2023-07-22T11:24:20;100660.94;;;18.84;100.00
13732;BME280;6937;56.096;12.664;2023-07-22T11:26:46;100658.94;;;18.94;100.00
13732;BME280;6937;56.096;12.664;2023-07-22T11:29:12;100673.16;;;18.96;100.00
13732;BME280;6937;56.096;12.664;2023-07-22T11:31:39;100687.88;;;18.94;100.00
13732;BME280;6937;56.096;12.664;2023-07-22T11:34:09;100696.50;;;18.89;100.00
13732;BME280;6937;56.096;12.664;2023-07-22T11:36:35;100691.25;;;18.88;100.00
13732;BME280;6937;56.096;12.664;2023-07-22T11:39:14;100685.50;;;18.91;100.00
13732;BME280;6937;56.096;12.664;2023-07-22T11:41:40;100682.44;;;18.77;100.00
13732;BME280;6937;56.096;12.664;2023-07-22T11:44:14;100673.78;;;18.66;100.00
13732;BME280;6937;56.096;12.664;2023-07-22T11:46:56;100676.97;;;18.61;100.00
13732;BME280;6937;56.096;12.664;2023-07-22T11:49:23;100686.53;;;18.48;100.00
13732;BME280;6937;56.096;12.664;2023-07-22T11:51:51;100697.63;;;18.62;100.00
13732;BME280;6937;56.096;12.664;2023-07-22T11:54:16;100681.88;;;18.58;100.00
13732;BME280;6937;56.096;12.664;2023-07-22T11:56:43;100669.88;;;18.68;100.00
13732;BME280;6937;56.096;12.664;2023-07-22T11:59:08;100666.81;;;18.63;100.00
13732;BME280;6937;56.096;12.664;2023-07-22T12:01:34;100659.09;;;18.85;100.00
13732;BME280;6937;56.096;12.664;2023-07-22T12:03:59;100665.56;;;19.08;100.00
13732;BME280;6937;56.096;12.664;2023-07-22T12:06:25;100665.22;;;19.03;100.00
13732;BME280;6937;56.096;12.664;2023-07-22T12:08:52;100673.38;;;19.27;100.00
13732;BME280;6937;56.096;12.664;2023-07-22T12:11:24;100680.13;;;19.15;100.00
13732;BME280;6937;56.096;12.664;2023-07-22T12:14:07;100677.25;;;19.24;100.00
13732;BME280;6937;56.096;12.664;2023-07-22T12:16:35;100682.19;;;19.45;100.00
13732;BME280;6937;56.096;12.664;2023-07-22T12:19:01;100673.69;;;19.32;100.00
13732;BME280;6937;56.096;12.664;2023-07-22T12:21:27;100685.88;;;19.20;100.00
13732;BME280;6937;56.096;12.664;2023-07-22T12:23:52;100689.47;;;19.45;100.00
13732;BME280;6937;56.096;12.664;2023-07-22T12:26:18;100694.69;;;19.14;100.00
13732;BME280;6937;56.096;12.664;2023-07-22T12:28:43;100691.94;;;18.98;100.00
13732;BME280;6937;56.096;12.664;2023-07-22T12:31:09;100670.94;;;18.92;100.00
13732;BME280;6937;56.096;12.664;2023-07-22T12:33:34;100675.16;;;18.78;100.00
13732;BME280;6937;56.096;12.664;2023-07-22T12:36:00;100660.22;;;18.58;100.00
13732;BME280;6937;56.096;12.664;2023-07-22T12:38:25;100659.31;;;18.49;100.00
13732;BME280;6937;56.096;12.664;2023-07-22T12:40:51;100653.88;;;18.49;100.00
13732;BME280;6937;56.096;12.664;2023-07-22T12:43:16;100652.59;;;18.61;100.00
13732;BME280;6937;56.096;12.664;2023-07-22T12:45:41;100661.59;;;18.70;100.00
13732;BME280;6937;56.096;12.664;2023-07-22T12:48:07;100664.66;;;18.67;100.00
13732;BME280;6937;56.096;12.664;2023-07-22T12:50:32;100674.28;;;18.69;100.00